Time;durP1;ratioP1;P1;durP2;ratioP2;P2;SDS_P1;SDS_P2;PMS_P1;PMS_P2;Temp;Humidity;BMP_temperature;BMP_pressure;BME280_temperature;BME280_humidity;BME280_pressure;Samples;Min_cycle;Max_cycle;Signal;HPM_P1;HPM_P2
2024/02/26 00:00:21;;;;;;;10.70;4.50;;;;;;;5.02;67.60;99641.88;107468;1254;74253;-40
2024/02/26 00:02:48;;;;;;;10.10;4.40;;;;;;;5.01;67.45;99643.73;107492;1254;67580;-40
2024/02/26 00:05:16;;;;;;;8.50;4.40;;;;;;;4.99;67.17;99640.98;107450;1254;72658;-40
2024/02/26 00:07:44;;;;;;;10.60;4.30;;;;;;;4.97;67.05;99642.85;107397;1253;60544;-40
2024/02/26 00:10:13;;;;;;;7.90;4.40;;;;;;;4.94;67.14;99639.60;107473;1254;60282;-39
2024/02/26 00:12:41;;;;;;;8.80;4.60;;;;;;;4.92;67.26;99633.69;107496;1254;74325;-40
2024/02/26 00:15:09;;;;;;;9.50;4.40;;;;;;;4.92;67.37;99630.52;107467;1254;67567;-40
2024/02/26 00:17:37;;;;;;;7.70;3.90;;;;;;;4.92;66.93;99634.55;107471;1254;72420;-39
2024/02/26 00:20:09;;;;;;;8.70;4.40;;;;;;;4.91;66.57;99635.35;107483;1254;60172;-39
2024/02/26 00:22:37;;;;;;;8.20;4.40;;;;;;;4.87;67.17;99630.94;107483;1254;60220;-40
2024/02/26 00:25:05;;;;;;;10.20;4.90;;;;;;;4.86;67.01;99636.02;107471;1254;73908;-39
2024/02/26 00:27:32;;;;;;;7.90;4.20;;;;;;;4.84;66.33;99638.07;107469;1254;66304;-40
2024/02/26 00:30:00;;;;;;;9.20;4.80;;;;;;;4.81;65.92;99632.34;107473;1254;72668;-40
2024/02/26 00:32:27;;;;;;;7.90;3.90;;;;;;;4.77;65.32;99642.77;107483;1254;60370;-40
2024/02/26 00:34:55;;;;;;;7.60;4.10;;;;;;;4.74;65.17;99641.59;107366;1254;174430;-39
2024/02/26 00:38:31;;;;;;;8.50;4.50;;;;;;;4.73;65.66;99639.72;104079;1292;616514;-39
2024/02/26 00:40:58;;;;;;;9.10;4.50;;;;;;;4.77;65.16;99643.75;106662;1266;59266;-39
2024/02/26 00:43:24;;;;;;;8.50;4.90;;;;;;;4.78;65.06;99643.24;105980;1267;1003841;-39
2024/02/26 00:45:52;;;;;;;7.90;4.20;;;;;;;4.76;64.68;99639.48;106720;1265;72654;-40
2024/02/26 00:48:19;;;;;;;10.40;5.00;;;;;;;4.74;64.60;99634.23;106729;1266;67906;-39
2024/02/26 00:50:46;;;;;;;9.50;4.60;;;;;;;4.72;64.80;99630.02;106598;1267;219030;-39
2024/02/26 00:53:12;;;;;;;8.10;4.80;;;;;;;4.69;64.66;99623.85;107072;1262;59632;-39
2024/02/26 00:55:39;;;;;;;7.80;4.50;;;;;;;4.64;64.52;99624.89;107048;1260;60191;-39
2024/02/26 00:58:06;;;;;;;8.40;4.60;;;;;;;4.62;64.92;99621.91;107054;1258;72788;-39
2024/02/26 01:00:33;;;;;;;9.30;4.50;;;;;;;4.59;65.11;99617.37;107035;1260;67804;-40
2024/02/26 01:03:00;;;;;;;9.30;4.90;;;;;;;4.58;65.12;99616.45;107068;1260;73269;-40
2024/02/26 01:05:27;;;;;;;9.00;4.40;;;;;;;4.58;65.29;99615.37;107103;1260;61180;-39
2024/02/26 01:07:53;;;;;;;9.20;5.20;;;;;;;4.56;65.18;99615.58;107101;1260;60394;-40
2024/02/26 01:10:20;;;;;;;13.50;4.50;;;;;;;4.53;65.46;99612.77;107144;1260;73688;-40
2024/02/26 01:12:47;;;;;;;12.20;5.10;;;;;;;4.51;65.30;99615.42;107055;1260;68072;-40
2024/02/26 01:15:14;;;;;;;8.50;4.90;;;;;;;4.49;65.29;99616.34;107051;1258;73127;-40
2024/02/26 01:17:41;;;;;;;10.30;5.40;;;;;;;4.46;65.35;99615.73;107225;1258;59803;-40
2024/02/26 01:20:09;;;;;;;8.50;4.70;;;;;;;4.42;65.15;99613.72;107283;1263;60047;-40
2024/02/26 01:22:36;;;;;;;10.10;5.90;;;;;;;4.39;65.26;99610.17;107270;1258;71788;-40
2024/02/26 01:25:03;;;;;;;9.10;4.70;;;;;;;4.35;65.74;99614.69;107200;1258;67986;-39
2024/02/26 01:27:30;;;;;;;9.40;5.10;;;;;;;4.35;65.73;99609.70;107143;1263;72249;-39
2024/02/26 01:29:57;;;;;;;8.30;4.90;;;;;;;4.36;65.91;99610.61;107046;1260;60203;-40
2024/02/26 01:32:24;;;;;;;6.80;4.50;;;;;;;4.36;65.92;99604.89;107097;1259;60124;-40
2024/02/26 01:34:51;;;;;;;10.80;5.60;;;;;;;4.32;65.65;99602.10;107032;1260;73595;-40
2024/02/26 01:37:18;;;;;;;9.70;5.10;;;;;;;4.28;65.78;99592.44;105541;1260;1003605;-40
2024/02/26 01:39:44;;;;;;;9.40;5.40;;;;;;;4.24;66.11;99592.52;107053;1259;73116;-40
2024/02/26 01:42:11;;;;;;;9.90;5.20;;;;;;;4.20;66.28;99591.02;107056;1260;59753;-40
2024/02/26 01:44:38;;;;;;;12.20;5.70;;;;;;;4.17;66.37;99589.13;107038;1260;60327;-40
2024/02/26 01:47:05;;;;;;;11.60;5.50;;;;;;;4.15;66.41;99589.44;107016;1263;72905;-39
2024/02/26 01:49:32;;;;;;;9.70;5.50;;;;;;;4.12;66.28;99592.73;106373;1260;1003668;-39
2024/02/26 01:51:59;;;;;;;8.40;5.50;;;;;;;4.09;66.11;99594.49;107035;1260;73219;-40
2024/02/26 01:54:26;;;;;;;9.50;5.30;;;;;;;4.06;66.31;99597.64;107046;1260;59724;-40
2024/02/26 01:56:53;;;;;;;9.40;5.60;;;;;;;4.04;66.36;99597.69;107092;1260;60183;-40
2024/02/26 01:59:20;;;;;;;9.80;5.70;;;;;;;4.01;66.43;99600.18;107732;1253;73697;-39
2024/02/26 02:01:48;;;;;;;8.00;5.70;;;;;;;3.97;66.51;99596.38;107670;1256;68118;-39
2024/02/26 02:04:14;;;;;;;8.70;5.10;;;;;;;3.97;66.36;99592.55;107713;1256;72955;-39
2024/02/26 02:06:41;;;;;;;8.10;5.40;;;;;;;4.00;66.17;99592.98;107640;1253;59749;-39
2024/02/26 02:09:08;;;;;;;9.10;5.80;;;;;;;3.98;66.22;99591.52;107525;1253;60115;-39
2024/02/26 02:11:35;;;;;;;9.90;6.10;;;;;;;3.94;66.12;99590.86;107720;1255;72921;-39
2024/02/26 02:14:02;;;;;;;10.40;5.40;;;;;;;3.91;65.93;99592.34;107610;1253;68050;-40
2024/02/26 02:16:30;;;;;;;10.10;6.10;;;;;;;3.88;66.17;99588.35;107678;1255;73130;-39
2024/02/26 02:18:58;;;;;;;9.40;5.30;;;;;;;3.85;66.53;99590.53;107602;1254;59827;-39
2024/02/26 02:21:24;;;;;;;11.40;5.50;;;;;;;3.83;66.80;99596.16;107735;1256;59495;-39
2024/02/26 02:23:51;;;;;;;11.40;6.10;;;;;;;3.83;66.61;99598.02;107686;1254;73542;-39
2024/02/26 02:26:18;;;;;;;7.60;5.30;;;;;;;3.87;66.62;99597.70;107702;1256;67919;-40
2024/02/26 02:28:45;;;;;;;10.60;5.60;;;;;;;3.89;66.64;99600.50;107670;1253;72167;-40
2024/02/26 02:31:12;;;;;;;12.90;6.40;;;;;;;3.88;66.58;99592.26;107567;1259;59583;-40
2024/02/26 02:33:39;;;;;;;10.80;6.20;;;;;;;3.86;66.59;99587.21;107544;1254;60057;-39
2024/02/26 02:36:09;;;;;;;11.30;5.60;;;;;;;3.82;66.82;99589.46;107750;1253;73436;-40
2024/02/26 02:38:37;;;;;;;14.60;6.70;;;;;;;3.78;67.01;99587.33;107739;1256;67788;-40
2024/02/26 02:41:05;;;;;;;10.70;6.20;;;;;;;3.77;67.10;99589.07;107704;1255;73309;-40
2024/02/26 02:43:31;;;;;;;10.50;6.40;;;;;;;3.79;67.05;99592.98;107767;1254;59701;-40
2024/02/26 02:45:58;;;;;;;12.20;6.90;;;;;;;3.84;67.08;99595.38;107705;1256;60034;-40
2024/02/26 02:48:25;;;;;;;10.30;5.70;;;;;;;3.84;67.17;99593.86;107737;1256;73572;-40
2024/02/26 02:50:52;;;;;;;11.50;6.10;;;;;;;3.83;67.37;99589.27;107721;1254;68172;-40
2024/02/26 02:53:19;;;;;;;10.20;6.30;;;;;;;3.81;67.41;99589.56;107731;1254;71825;-40
2024/02/26 02:55:45;;;;;;;10.40;5.50;;;;;;;3.80;67.56;99585.04;107712;1253;59605;-39
2024/02/26 02:58:12;;;;;;;10.60;6.30;;;;;;;3.78;67.44;99589.79;107768;1256;60221;-40
2024/02/26 03:00:39;;;;;;;12.00;6.50;;;;;;;3.75;67.45;99589.27;107698;1256;74073;-40
2024/02/26 03:03:06;;;;;;;13.00;6.50;;;;;;;3.76;67.62;99591.67;107726;1256;67909;-40
2024/02/26 03:05:32;;;;;;;12.80;6.30;;;;;;;3.71;67.67;99572.73;107747;1254;72703;-40
2024/02/26 03:07:59;;;;;;;11.80;6.20;;;;;;;3.76;67.95;99575.43;107750;1254;60561;-39
2024/02/26 03:10:26;;;;;;;16.80;7.40;;;;;;;3.80;67.77;99582.35;107744;1251;59611;-39
2024/02/26 03:12:53;;;;;;;13.00;6.70;;;;;;;3.78;67.68;99588.61;107703;1256;73578;-40
2024/02/26 03:15:20;;;;;;;11.50;6.60;;;;;;;3.76;67.81;99590.67;107716;1255;68067;-40
2024/02/26 03:17:47;;;;;;;12.10;7.40;;;;;;;3.73;67.92;99586.94;107718;1256;73457;-40
2024/02/26 03:20:14;;;;;;;9.60;6.60;;;;;;;3.71;68.33;99587.59;106945;1255;1002947;-39
2024/02/26 03:22:41;;;;;;;9.50;6.50;;;;;;;3.72;68.16;99582.25;107701;1254;60399;-40
2024/02/26 03:25:08;;;;;;;10.10;5.80;;;;;;;3.74;68.09;99586.52;107756;1254;72836;-39
2024/02/26 03:27:35;;;;;;;10.90;6.50;;;;;;;3.73;68.28;99585.86;107709;1255;68432;-40
2024/02/26 03:30:03;;;;;;;13.30;6.60;;;;;;;3.71;68.18;99587.05;107723;1255;73093;-40
2024/02/26 03:32:31;;;;;;;10.50;6.90;;;;;;;3.69;68.34;99583.21;107723;1254;59600;-40
2024/02/26 03:34:58;;;;;;;14.80;8.20;;;;;;;3.67;68.48;99584.73;107740;1253;59611;-39
2024/02/26 03:37:25;;;;;;;14.30;7.30;;;;;;;3.66;68.39;99586.11;107712;1254;73654;-40
2024/02/26 03:39:51;;;;;;;14.80;6.90;;;;;;;3.66;68.44;99585.77;107695;1254;68205;-40
2024/02/26 03:42:19;;;;;;;11.50;7.00;;;;;;;3.71;68.54;99591.66;107744;1253;71238;-40
2024/02/26 03:44:45;;;;;;;15.80;7.00;;;;;;;3.71;68.43;99588.60;107719;1255;59493;-40
2024/02/26 03:47:12;;;;;;;13.00;7.60;;;;;;;3.68;68.54;99595.20;107754;1254;60323;-40
2024/02/26 03:49:39;;;;;;;12.80;7.30;;;;;;;3.68;68.46;99595.50;107715;1254;73351;-39
2024/02/26 03:52:06;;;;;;;14.30;7.10;;;;;;;3.68;68.55;99601.77;107715;1254;66859;-40
2024/02/26 03:54:33;;;;;;;10.90;7.00;;;;;;;3.68;68.62;99600.38;107739;1256;72978;-40
2024/02/26 03:57:00;;;;;;;14.30;7.90;;;;;;;3.68;68.58;99599.34;107709;1255;61179;-40
2024/02/26 03:59:27;;;;;;;10.20;6.80;;;;;;;3.72;68.53;99599.66;107736;1254;60320;-40
2024/02/26 04:01:54;;;;;;;11.70;7.00;;;;;;;3.76;68.36;99604.23;107774;1254;73544;-40
2024/02/26 04:04:21;;;;;;;16.20;7.60;;;;;;;3.77;68.71;99599.92;107733;1254;68007;-40
2024/02/26 04:06:48;;;;;;;12.60;7.40;;;;;;;3.78;68.65;99599.95;107730;1254;73363;-40
2024/02/26 04:09:15;;;;;;;16.30;8.10;;;;;;;3.75;68.79;99596.85;107764;1255;59785;-40
2024/02/26 04:11:43;;;;;;;14.40;7.30;;;;;;;3.72;68.82;99595.46;107745;1256;60334;-40
2024/02/26 04:14:12;;;;;;;17.40;7.90;;;;;;;3.71;69.02;99593.58;107737;1254;72826;-40
2024/02/26 04:16:39;;;;;;;16.90;7.70;;;;;;;3.70;69.13;99592.63;106205;1254;1003546;-40
2024/02/26 04:19:06;;;;;;;13.20;7.50;;;;;;;3.74;69.07;99587.48;107731;1255;59922;-40
2024/02/26 04:21:34;;;;;;;12.30;7.70;;;;;;;3.76;69.21;99585.46;107781;1254;59644;-40
2024/02/26 04:24:01;;;;;;;12.20;7.60;;;;;;;3.75;69.24;99588.39;107671;1254;60164;-40
2024/02/26 04:26:30;;;;;;;13.80;8.10;;;;;;;3.73;69.35;99588.85;107697;1255;73776;-40
2024/02/26 04:28:57;;;;;;;16.40;7.90;;;;;;;3.73;69.38;99586.38;107728;1254;66440;-40
2024/02/26 04:31:23;;;;;;;14.00;7.50;;;;;;;3.72;69.42;99590.08;107699;1254;72944;-40
2024/02/26 04:33:50;;;;;;;14.00;7.70;;;;;;;3.68;69.52;99587.66;107694;1255;59543;-40
2024/02/26 04:36:17;;;;;;;18.20;7.80;;;;;;;3.65;69.61;99590.14;107715;1254;61627;-40
2024/02/26 04:38:44;;;;;;;12.60;6.80;;;;;;;3.67;69.53;99593.45;107732;1254;72971;-40
2024/02/26 04:41:11;;;;;;;14.10;7.60;;;;;;;3.72;69.58;99602.73;107721;1257;68289;-40
2024/02/26 04:43:41;;;;;;;16.80;8.40;;;;;;;3.71;69.48;99605.27;107522;1255;73107;-40
2024/02/26 04:46:08;;;;;;;;;;;;;;;3.69;69.70;99608.10;107375;1255;1002959;-40
2024/02/26 04:48:36;;;;;;;19.40;8.60;;;;;;;3.68;69.73;99613.73;107679;1255;60591;-41
2024/02/26 04:51:03;;;;;;;13.70;8.00;;;;;;;3.66;69.74;99616.13;107714;1254;73290;-40
2024/02/26 04:53:31;;;;;;;15.70;7.70;;;;;;;3.63;69.81;99616.09;107712;1254;67989;-41
2024/02/26 04:55:57;;;;;;;16.80;7.60;;;;;;;3.63;69.93;99614.09;107738;1254;72402;-41
2024/02/26 04:58:24;;;;;;;15.00;7.80;;;;;;;3.68;69.95;99613.86;107682;1251;60876;-41
2024/02/26 05:00:51;;;;;;;14.20;7.70;;;;;;;3.67;69.91;99612.14;107716;1254;60519;-41
2024/02/26 05:03:18;;;;;;;18.40;7.60;;;;;;;3.65;70.23;99612.88;107722;1256;73715;-40
2024/02/26 05:05:45;;;;;;;18.30;8.60;;;;;;;3.61;70.19;99624.12;107685;1254;66739;-41
2024/02/26 05:08:12;;;;;;;15.00;8.20;;;;;;;3.59;70.16;99626.15;107680;1255;70686;-41
2024/02/26 05:10:40;;;;;;;15.50;7.90;;;;;;;3.58;70.42;99623.86;107668;1253;59560;-40
2024/02/26 05:13:07;;;;;;;20.20;8.80;;;;;;;3.58;70.32;99620.45;107702;1254;60319;-40
2024/02/26 05:15:34;;;;;;;15.60;8.30;;;;;;;3.64;70.40;99626.38;107691;1251;74402;-40
2024/02/26 05:18:02;;;;;;;14.10;7.80;;;;;;;3.64;70.35;99626.45;107530;1254;68592;-41
2024/02/26 05:20:29;;;;;;;14.60;8.30;;;;;;;3.62;70.40;99629.48;107700;1254;71573;-40
2024/02/26 05:22:58;;;;;;;16.20;8.60;;;;;;;3.60;70.32;99635.67;107709;1254;60398;-40
2024/02/26 05:25:25;;;;;;;11.30;7.00;;;;;;;3.60;70.67;99634.60;107591;1254;60421;-40
2024/02/26 05:27:52;;;;;;;13.90;8.10;;;;;;;3.59;70.78;99624.70;107576;1254;74316;-40
2024/02/26 05:30:19;;;;;;;14.90;8.50;;;;;;;3.62;70.84;99625.77;107699;1256;67961;-40
2024/02/26 05:32:46;;;;;;;16.60;8.10;;;;;;;3.67;70.57;99625.31;107634;1254;72642;-40
2024/02/26 05:35:12;;;;;;;15.80;8.60;;;;;;;3.68;70.85;99624.43;107701;1251;60594;-40
2024/02/26 05:37:39;;;;;;;15.80;8.80;;;;;;;3.67;71.10;99628.98;107717;1253;60438;-40
2024/02/26 05:40:07;;;;;;;17.80;8.80;;;;;;;3.65;70.74;99628.70;107716;1254;74204;-40
2024/02/26 05:42:33;;;;;;;15.20;8.80;;;;;;;3.61;71.04;99629.01;107747;1254;67923;-40
2024/02/26 05:45:05;;;;;;;16.20;8.80;;;;;;;3.55;71.04;99625.30;107679;1255;73607;-40
2024/02/26 05:47:33;;;;;;;16.40;8.30;;;;;;;3.64;71.01;99638.52;107729;1254;60534;-40
2024/02/26 05:50:00;;;;;;;16.90;8.20;;;;;;;3.70;71.07;99640.15;107688;1254;60370;-40
2024/02/26 05:52:29;;;;;;;14.70;8.80;;;;;;;3.73;70.98;99637.77;107753;1254;72403;-40
2024/02/26 05:54:56;;;;;;;14.80;8.60;;;;;;;3.74;70.89;99638.00;107702;1255;68842;-40
2024/02/26 05:57:22;;;;;;;17.20;8.30;;;;;;;3.75;70.92;99642.42;107685;1255;73386;-40
2024/02/26 05:59:49;;;;;;;20.10;9.40;;;;;;;3.75;71.10;99642.80;107722;1251;60303;-40
2024/02/26 06:02:16;;;;;;;14.20;8.50;;;;;;;3.79;71.05;99635.89;107658;1254;60337;-41
2024/02/26 06:04:43;;;;;;;18.70;9.30;;;;;;;3.88;70.98;99636.15;107676;1254;74532;-40
2024/02/26 06:07:10;;;;;;;17.50;9.00;;;;;;;3.92;70.82;99636.91;107702;1255;67902;-40
2024/02/26 06:09:37;;;;;;;17.00;9.80;;;;;;;3.92;70.45;99638.31;107759;1255;73083;-40
2024/02/26 06:12:04;;;;;;;17.40;9.30;;;;;;;3.92;70.45;99633.16;107589;1256;60395;-40
2024/02/26 06:14:31;;;;;;;13.20;8.80;;;;;;;3.91;70.59;99631.89;107602;1253;60300;-40
2024/02/26 06:16:58;;;;;;;15.00;8.90;;;;;;;3.89;70.66;99628.05;107557;1255;74451;-40
2024/02/26 06:19:24;;;;;;;15.70;8.90;;;;;;;3.94;70.65;99631.70;107654;1256;67943;-40
2024/02/26 06:21:51;;;;;;;18.00;8.80;;;;;;;3.99;70.07;99634.02;107691;1254;73226;-40
2024/02/26 06:24:20;;;;;;;16.50;8.80;;;;;;;3.99;70.37;99635.42;107703;1257;60655;-40
2024/02/26 06:26:47;;;;;;;15.10;9.10;;;;;;;3.98;70.43;99640.71;107724;1256;59234;-40
2024/02/26 06:29:14;;;;;;;14.30;8.60;;;;;;;3.94;70.14;99640.23;107746;1255;72602;-40
2024/02/26 06:31:41;;;;;;;17.30;9.40;;;;;;;3.90;70.25;99643.48;107673;1253;67736;-40
2024/02/26 06:34:08;;;;;;;16.20;8.50;;;;;;;3.89;70.47;99647.86;107663;1254;73072;-40
2024/02/26 06:36:35;;;;;;;14.40;8.90;;;;;;;3.93;70.59;99645.02;107696;1252;60961;-40
2024/02/26 06:39:02;;;;;;;14.60;8.60;;;;;;;4.01;70.45;99645.62;107522;1254;60441;-40
2024/02/26 06:41:29;;;;;;;21.70;9.00;;;;;;;4.02;70.18;99642.88;107717;1256;72961;-40
2024/02/26 06:43:56;;;;;;;16.80;9.10;;;;;;;4.00;70.28;99645.77;107711;1252;67865;-40
2024/02/26 06:46:23;;;;;;;15.10;8.90;;;;;;;3.97;70.33;99640.64;107672;1255;73620;-40
2024/02/26 06:48:50;;;;;;;14.50;9.30;;;;;;;3.96;70.63;99639.02;107674;1254;60329;-40
2024/02/26 06:51:22;;;;;;;15.00;8.90;;;;;;;3.97;70.65;99643.26;107736;1253;60796;-40
2024/02/26 06:53:49;;;;;;;14.00;8.00;;;;;;;4.01;70.29;99647.30;107702;1254;73645;-40
2024/02/26 06:56:17;;;;;;;15.10;9.30;;;;;;;4.05;70.23;99654.16;107689;1254;67885;-40
2024/02/26 06:58:44;;;;;;;15.60;8.80;;;;;;;4.05;70.46;99653.41;107705;1253;72686;-40
2024/02/26 07:01:12;;;;;;;17.30;9.20;;;;;;;4.06;70.68;99657.61;107667;1253;60363;-40
2024/02/26 07:03:42;;;;;;;16.90;9.40;;;;;;;4.08;70.80;99658.90;107707;1253;60219;-41
2024/02/26 07:06:09;;;;;;;16.50;9.40;;;;;;;4.10;70.99;99656.39;107687;1253;73858;-41
2024/02/26 07:08:36;;;;;;;19.10;9.10;;;;;;;4.14;71.08;99660.07;107727;1253;68015;-41
2024/02/26 07:11:03;;;;;;;17.30;8.90;;;;;;;4.25;70.76;99659.84;107645;1253;72855;-41
2024/02/26 07:13:30;;;;;;;18.80;8.50;;;;;;;4.34;70.22;99653.81;107546;1254;60443;-40
2024/02/26 07:15:57;;;;;;;16.10;9.00;;;;;;;4.36;70.16;99651.95;107697;1254;60714;-40
2024/02/26 07:18:23;;;;;;;16.50;8.60;;;;;;;4.38;70.14;99649.55;107665;1257;73740;-40
2024/02/26 07:20:50;;;;;;;16.10;8.60;;;;;;;4.38;70.25;99648.64;107693;1254;67012;-40
2024/02/26 07:23:17;;;;;;;15.50;9.10;;;;;;;4.42;70.32;99645.43;107711;1254;72423;-40
2024/02/26 07:25:44;;;;;;;15.20;8.80;;;;;;;4.45;70.16;99642.92;107641;1254;61022;-40
2024/02/26 07:28:14;;;;;;;15.20;8.70;;;;;;;4.52;70.07;99639.11;107704;1251;60415;-40
2024/02/26 07:30:41;;;;;;;18.00;9.50;;;;;;;4.55;69.89;99642.55;107680;1256;72801;-40
2024/02/26 07:33:08;;;;;;;16.70;9.20;;;;;;;4.55;69.96;99644.62;107726;1256;68017;-40
2024/02/26 07:35:36;;;;;;;15.30;9.00;;;;;;;4.58;70.06;99644.59;107726;1255;72732;-40
2024/02/26 07:38:03;;;;;;;14.20;9.10;;;;;;;4.62;69.90;99645.64;107714;1254;60438;-41
2024/02/26 07:40:30;;;;;;;15.80;8.80;;;;;;;4.69;69.96;99643.23;107674;1253;60494;-40
2024/02/26 07:42:57;;;;;;;15.50;8.30;;;;;;;4.81;69.94;99637.17;107695;1252;73768;-40
2024/02/26 07:45:24;;;;;;;15.70;8.90;;;;;;;4.95;69.40;99634.13;107742;1254;67990;-40
2024/02/26 07:47:51;;;;;;;19.90;9.40;;;;;;;5.04;68.93;99636.91;107689;1254;72709;-40
2024/02/26 07:50:19;;;;;;;18.40;9.80;;;;;;;5.10;68.74;99634.39;107693;1256;60320;-40
2024/02/26 07:52:46;;;;;;;17.00;9.90;;;;;;;5.13;68.76;99636.21;107676;1253;60432;-40
2024/02/26 07:55:13;;;;;;;16.10;9.80;;;;;;;5.15;68.49;99637.95;107660;1253;73969;-40
2024/02/26 07:57:46;;;;;;;16.70;9.20;;;;;;;5.14;68.12;99635.96;107667;1254;68001;-40
2024/02/26 08:00:16;;;;;;;15.10;9.50;;;;;;;5.10;67.84;99639.79;107679;1254;71747;-40
2024/02/26 08:02:44;;;;;;;16.00;9.00;;;;;;;5.14;67.86;99640.42;107771;1253;61226;-40
2024/02/26 08:05:11;;;;;;;16.40;8.80;;;;;;;5.17;67.44;99644.73;107664;1252;60428;-40
2024/02/26 08:07:38;;;;;;;14.50;9.30;;;;;;;5.19;67.94;99640.39;107681;1253;73836;-40
2024/02/26 08:10:07;;;;;;;17.80;10.30;;;;;;;5.22;67.73;99644.78;107688;1253;67963;-40
2024/02/26 08:12:34;;;;;;;15.50;8.80;;;;;;;5.27;67.81;99645.45;107674;1252;72575;-40
2024/02/26 08:15:02;;;;;;;15.50;9.50;;;;;;;5.30;67.95;99642.98;107667;1254;60307;-40
2024/02/26 08:17:29;;;;;;;17.70;9.50;;;;;;;5.36;67.92;99639.63;107698;1251;60504;-40
2024/02/26 08:19:57;;;;;;;16.90;9.40;;;;;;;5.42;67.52;99639.59;107684;1252;73660;-40
2024/02/26 08:22:24;;;;;;;15.10;9.40;;;;;;;5.47;67.65;99642.34;107728;1256;67892;-41
2024/02/26 08:24:50;;;;;;;19.50;9.50;;;;;;;5.50;67.61;99639.55;107659;1253;72716;-40
2024/02/26 08:27:17;;;;;;;20.00;9.50;;;;;;;5.54;67.76;99639.98;107699;1253;60255;-40
2024/02/26 08:29:44;;;;;;;16.40;9.60;;;;;;;5.62;67.58;99636.39;107720;1252;60424;-40
2024/02/26 08:32:11;;;;;;;20.50;9.60;;;;;;;5.72;67.35;99632.20;107724;1251;73851;-40
2024/02/26 08:34:38;;;;;;;18.80;9.60;;;;;;;5.87;67.17;99634.23;107683;1254;67679;-40
2024/02/26 08:37:06;;;;;;;18.30;9.70;;;;;;;6.04;66.44;99631.30;107718;1254;72748;-40
2024/02/26 08:39:32;;;;;;;18.50;10.10;;;;;;;6.14;65.93;99625.40;107700;1253;60365;-40
2024/02/26 08:41:59;;;;;;;17.00;9.00;;;;;;;6.22;65.85;99632.12;107712;1256;60450;-41
2024/02/26 08:44:26;;;;;;;17.60;9.20;;;;;;;6.28;65.44;99634.14;107697;1251;73794;-40
2024/02/26 08:46:54;;;;;;;20.00;9.50;;;;;;;6.34;65.03;99634.14;107664;1251;67795;-40
2024/02/26 08:49:23;;;;;;;15.90;9.50;;;;;;;6.40;65.13;99632.95;107638;1254;72586;-40
2024/02/26 08:51:50;;;;;;;17.60;9.40;;;;;;;6.52;65.12;99633.64;107697;1252;60406;-40
2024/02/26 08:54:17;;;;;;;16.80;9.40;;;;;;;6.63;64.48;99632.06;107713;1253;60454;-40
2024/02/26 08:56:44;;;;;;;17.20;9.60;;;;;;;6.76;64.24;99633.02;107663;1254;73891;-40
2024/02/26 08:59:11;;;;;;;15.00;9.60;;;;;;;6.86;63.79;99629.56;107552;1254;67913;-40
2024/02/26 09:01:38;;;;;;;17.20;9.20;;;;;;;6.91;63.51;99630.05;107642;1254;72694;-40
2024/02/26 09:04:04;;;;;;;18.00;9.70;;;;;;;6.93;63.54;99627.28;107718;1253;60271;-41
2024/02/26 09:06:32;;;;;;;15.30;9.50;;;;;;;6.96;63.31;99625.58;107707;1253;60420;-41
2024/02/26 09:08:59;;;;;;;18.50;10.10;;;;;;;6.98;63.01;99625.70;107687;1253;73909;-40
2024/02/26 09:11:28;;;;;;;13.50;9.60;;;;;;;6.98;62.79;99627.21;107681;1254;67994;-40
2024/02/26 09:13:55;;;;;;;13.80;9.10;;;;;;;6.95;62.31;99630.20;107763;1253;72775;-40
2024/02/26 09:16:22;;;;;;;14.70;9.70;;;;;;;6.93;62.69;99634.04;107673;1254;59510;-40
2024/02/26 09:18:49;;;;;;;18.40;9.80;;;;;;;6.89;62.66;99629.06;107666;1251;60414;-40
2024/02/26 09:21:22;;;;;;;20.10;10.20;;;;;;;6.85;62.39;99632.83;107696;1251;73994;-41
2024/02/26 09:23:50;;;;;;;19.50;9.90;;;;;;;6.82;62.91;99631.46;107669;1254;67993;-40
2024/02/26 09:26:17;;;;;;;14.20;8.50;;;;;;;6.85;62.92;99629.83;107680;1253;71766;-41
2024/02/26 09:28:46;;;;;;;16.20;9.00;;;;;;;6.91;62.47;99627.34;107672;1252;60262;-40
2024/02/26 09:31:16;;;;;;;16.90;9.20;;;;;;;6.93;62.27;99627.64;107686;1256;60314;-40
2024/02/26 09:33:43;;;;;;;14.60;9.00;;;;;;;6.94;62.25;99622.84;107684;1253;72720;-40
2024/02/26 09:36:10;;;;;;;18.30;9.50;;;;;;;6.99;62.44;99620.05;106210;1253;1003605;-41
2024/02/26 09:38:39;;;;;;;15.10;9.70;;;;;;;7.07;62.12;99616.70;107632;1254;61003;-41
2024/02/26 09:41:22;;;;;;;17.00;9.50;;;;;;;7.13;61.98;99615.47;107654;1253;60519;-40
2024/02/26 09:43:49;;;;;;;14.60;9.20;;;;;;;7.16;62.03;99614.10;107761;1255;60442;-41
2024/02/26 09:46:17;;;;;;;20.00;9.80;;;;;;;7.19;62.01;99615.52;107663;1253;73863;-41
2024/02/26 09:48:44;;;;;;;16.50;9.70;;;;;;;7.20;61.59;99617.09;107731;1252;66679;-40
2024/02/26 09:51:11;;;;;;;17.90;9.80;;;;;;;7.20;61.53;99614.49;107692;1253;71223;-40
2024/02/26 09:53:42;;;;;;;18.60;10.20;;;;;;;7.22;61.55;99620.34;107700;1254;60509;-40
2024/02/26 09:56:09;;;;;;;17.50;10.10;;;;;;;7.25;61.52;99619.73;107543;1258;61269;-41
2024/02/26 09:58:36;;;;;;;18.10;10.40;;;;;;;7.23;61.37;99615.58;107700;1253;73685;-40
2024/02/26 10:01:04;;;;;;;17.30;10.00;;;;;;;7.27;61.10;99621.27;107547;1253;67865;-40
2024/02/26 10:03:36;;;;;;;17.70;9.80;;;;;;;7.27;61.25;99622.60;107486;1253;72736;-40
2024/02/26 10:06:05;;;;;;;18.50;9.80;;;;;;;7.29;61.25;99619.13;107674;1253;60486;-41
2024/02/26 10:08:32;;;;;;;16.50;8.90;;;;;;;7.37;61.94;99618.23;107689;1253;60432;-41
2024/02/26 10:10:59;;;;;;;15.60;8.40;;;;;;;7.52;61.31;99612.00;107684;1251;74387;-41
2024/02/26 10:13:26;;;;;;;17.30;8.80;;;;;;;7.66;61.12;99615.00;107500;1253;68080;-40
2024/02/26 10:15:52;;;;;;;15.50;9.50;;;;;;;7.78;60.51;99614.34;107670;1252;72557;-41
2024/02/26 10:18:19;;;;;;;17.10;9.90;;;;;;;7.87;60.27;99615.98;107710;1255;60533;-41
2024/02/26 10:21:01;;;;;;;15.00;9.30;;;;;;;7.98;59.45;99614.72;107687;1254;60579;-41
2024/02/26 10:23:28;;;;;;;16.20;8.70;;;;;;;8.08;59.13;99618.75;107727;1252;72770;-40
2024/02/26 10:25:55;;;;;;;15.30;8.90;;;;;;;8.16;58.60;99609.81;107701;1253;67942;-40
2024/02/26 10:28:22;;;;;;;14.50;8.60;;;;;;;8.28;58.81;99613.77;107765;1253;71473;-41
2024/02/26 10:30:51;;;;;;;16.00;9.20;;;;;;;8.47;58.67;99614.39;107697;1253;60126;-41
2024/02/26 10:33:18;;;;;;;15.30;7.40;;;;;;;8.71;58.52;99606.17;107722;1252;60437;-41
2024/02/26 10:35:49;;;;;;;16.80;8.90;;;;;;;9.01;57.67;99608.61;107722;1253;73852;-40
2024/02/26 10:38:20;;;;;;;16.90;9.50;;;;;;;9.30;56.84;99600.91;107735;1253;68030;-41
2024/02/26 10:40:49;;;;;;;16.00;9.10;;;;;;;9.69;55.98;99604.66;107620;1253;72495;-41
2024/02/26 10:43:16;;;;;;;16.40;10.30;;;;;;;9.98;55.33;99609.67;107726;1252;60407;-41
2024/02/26 10:45:43;;;;;;;17.00;9.60;;;;;;;10.26;54.62;99608.84;107574;1253;60877;-41
2024/02/26 10:48:11;;;;;;;16.20;9.40;;;;;;;10.53;54.33;99606.70;107693;1252;73832;-41
2024/02/26 10:50:38;;;;;;;15.30;9.60;;;;;;;10.79;53.28;99603.63;107730;1256;67869;-41
2024/02/26 10:53:10;;;;;;;16.50;9.70;;;;;;;10.97;52.20;99606.72;107708;1253;72487;-41
2024/02/26 10:55:37;;;;;;;15.40;9.60;;;;;;;11.06;51.60;99602.02;107670;1254;60505;-41
2024/02/26 10:58:04;;;;;;;18.80;10.30;;;;;;;11.13;51.72;99601.48;107516;1254;60823;-41
2024/02/26 11:00:31;;;;;;;13.30;9.30;;;;;;;11.23;51.26;99602.77;107693;1252;73702;-41
2024/02/26 11:03:01;;;;;;;13.70;9.30;;;;;;;11.34;50.58;99599.40;107760;1253;67947;-41
2024/02/26 11:05:28;;;;;;;14.90;9.50;;;;;;;11.46;51.06;99600.02;107681;1256;72581;-41
2024/02/26 11:07:55;;;;;;;20.50;9.40;;;;;;;11.62;50.23;99600.88;107695;1256;60758;-41
2024/02/26 11:10:22;;;;;;;15.60;9.20;;;;;;;11.69;49.29;99597.30;107719;1252;60433;-41
2024/02/26 11:12:48;;;;;;;13.70;8.80;;;;;;;11.74;49.81;99600.58;107697;1254;73832;-41
2024/02/26 11:15:15;;;;;;;13.00;8.60;;;;;;;11.90;49.51;99601.42;107490;1253;67955;-41
2024/02/26 11:17:42;;;;;;;16.30;9.00;;;;;;;12.13;49.28;99597.37;107528;1253;72771;-41
2024/02/26 11:20:12;;;;;;;13.50;8.80;;;;;;;12.40;48.90;99590.09;107667;1253;60757;-42
2024/02/26 11:22:39;;;;;;;15.40;8.70;;;;;;;12.58;47.69;99591.31;107736;1253;60307;-41
2024/02/26 11:25:07;;;;;;;11.40;8.40;;;;;;;12.69;47.25;99594.10;107738;1251;73908;-41
2024/02/26 11:27:38;;;;;;;12.90;8.10;;;;;;;12.83;47.47;99587.06;107586;1253;66636;-41